createdAt,value
2018-08-09T00:01:39.000Z,100353
2018-08-09T00:02:39.000Z,100357
2018-08-09T00:04:39.000Z,100351
2018-08-09T00:06:39.000Z,100351
2018-08-09T00:08:39.000Z,100355
2018-08-09T00:10:24.000Z,100355
2018-08-09T00:11:39.000Z,100354
2018-08-09T00:13:39.000Z,100354
2018-08-09T00:15:39.000Z,100345
2018-08-09T00:17:39.000Z,100339
2018-08-09T00:19:24.000Z,100340
2018-08-09T00:20:39.000Z,100343
2018-08-09T00:21:39.000Z,100336
2018-08-09T00:23:39.000Z,100333
2018-08-09T00:24:39.000Z,100330
2018-08-09T00:26:39.000Z,100332
2018-08-09T00:27:39.000Z,100329
2018-08-09T00:28:39.000Z,100332
2018-08-09T00:30:39.000Z,100338
2018-08-09T00:32:24.000Z,100337
2018-08-09T00:33:39.000Z,100338
2018-08-09T00:35:24.000Z,100342
2018-08-09T00:36:39.000Z,100345
2018-08-09T00:37:39.000Z,100343
2018-08-09T00:39:24.000Z,100341
2018-08-09T00:40:39.000Z,100340
2018-08-09T00:41:39.000Z,100343
2018-08-09T00:42:39.000Z,100343
2018-08-09T00:44:24.000Z,100345
2018-08-09T00:45:39.000Z,100342
2018-08-09T00:47:39.000Z,100342
2018-08-09T00:49:39.000Z,100347
2018-08-09T00:51:39.000Z,100348
2018-08-09T00:53:39.000Z,100346
2018-08-09T00:55:39.000Z,100342
2018-08-09T00:57:39.000Z,100340
2018-08-09T00:58:39.000Z,100343
2018-08-09T00:59:39.000Z,100341
2018-08-09T01:01:39.000Z,100340
2018-08-09T01:02:39.000Z,100343
2018-08-09T01:04:39.000Z,100332
2018-08-09T01:06:24.000Z,100329
2018-08-09T01:07:39.000Z,100336
2018-08-09T01:09:39.000Z,100330
2018-08-09T01:11:39.000Z,100335
2018-08-09T01:12:39.000Z,100334
2018-08-09T01:14:39.000Z,100337
2018-08-09T01:16:39.000Z,100334
2018-08-09T01:18:39.000Z,100325
2018-08-09T01:19:39.000Z,100325
2018-08-09T01:21:39.000Z,100319
2018-08-09T01:23:39.000Z,100321
2018-08-09T01:25:39.000Z,100318
2018-08-09T01:27:39.000Z,100314
2018-08-09T01:28:39.000Z,100321
2018-08-09T01:30:39.000Z,100317
2018-08-09T01:32:24.000Z,100312
2018-08-09T01:33:39.000Z,100311
2018-08-09T01:34:39.000Z,100310
2018-08-09T01:35:39.000Z,100310
2018-08-09T01:36:39.000Z,100304
2018-08-09T01:38:24.000Z,100302
2018-08-09T01:39:39.000Z,100299
2018-08-09T01:41:24.000Z,100305
2018-08-09T01:42:39.000Z,100304
2018-08-09T01:44:39.000Z,100305
2018-08-09T01:45:39.000Z,100304
2018-08-09T01:47:39.000Z,100304
2018-08-09T01:49:39.000Z,100308
2018-08-09T01:51:39.000Z,100308
2018-08-09T01:52:39.000Z,100313
2018-08-09T01:54:39.000Z,100306
2018-08-09T01:56:24.000Z,100304
2018-08-09T01:57:24.000Z,100306
2018-08-09T01:58:39.000Z,100303
2018-08-09T02:00:39.000Z,100300
2018-08-09T02:01:39.000Z,100305
2018-08-09T02:03:39.000Z,100299
2018-08-09T02:04:39.000Z,100299
2018-08-09T02:05:39.000Z,100302
2018-08-09T02:06:39.000Z,100296
2018-08-09T02:08:39.000Z,100292
2018-08-09T02:10:24.000Z,100298
2018-08-09T02:11:39.000Z,100295
2018-08-09T02:13:39.000Z,100294
2018-08-09T02:15:39.000Z,100295
2018-08-09T02:17:39.000Z,100290
2018-08-09T02:19:39.000Z,100287
2018-08-09T02:20:39.000Z,100291
2018-08-09T02:22:39.000Z,100285
2018-08-09T02:24:39.000Z,100274
2018-08-09T02:26:39.000Z,100281
2018-08-09T02:28:39.000Z,100283
2018-08-09T02:30:39.000Z,100280
2018-08-09T02:32:39.000Z,100277
2018-08-09T02:34:39.000Z,100273
2018-08-09T02:36:39.000Z,100271
2018-08-09T02:37:39.000Z,100270
2018-08-09T02:39:08.000Z,100269
2018-08-09T02:40:39.000Z,100262
2018-08-09T02:41:39.000Z,100264
2018-08-09T02:42:39.000Z,100257
2018-08-09T02:44:39.000Z,100264
2018-08-09T02:46:39.000Z,100257
2018-08-09T02:47:39.000Z,100254
2018-08-09T02:49:24.000Z,100254
2018-08-09T02:50:39.000Z,100261
2018-08-09T02:52:39.000Z,100264
2018-08-09T02:54:39.000Z,100262
2018-08-09T02:56:39.000Z,100262
2018-08-09T02:58:39.000Z,100265
2018-08-09T03:00:39.000Z,100273
2018-08-09T03:02:39.000Z,100270
2018-08-09T03:04:39.000Z,100271
2018-08-09T03:06:39.000Z,100273
2018-08-09T03:08:39.000Z,100272
2018-08-09T03:10:40.000Z,100261
2018-08-09T03:12:40.000Z,100254
2018-08-09T03:14:40.000Z,100250
2018-08-09T03:15:40.000Z,100250
2018-08-09T03:17:40.000Z,100250
2018-08-09T03:19:40.000Z,100252
2018-08-09T03:21:40.000Z,100240
2018-08-09T03:23:40.000Z,100240
2018-08-09T03:25:40.000Z,100238
2018-08-09T03:26:40.000Z,100239
2018-08-09T03:28:24.000Z,100238
2018-08-09T03:29:40.000Z,100237
2018-08-09T03:31:40.000Z,100234
2018-08-09T03:33:24.000Z,100230
2018-08-09T03:34:40.000Z,100231
2018-08-09T03:35:40.000Z,100226
2018-08-09T03:37:40.000Z,100226
2018-08-09T03:38:40.000Z,100228
2018-08-09T03:39:40.000Z,100230
2018-08-09T03:41:40.000Z,100233
2018-08-09T03:43:40.000Z,100245
2018-08-09T03:44:40.000Z,100246
2018-08-09T03:46:24.000Z,100237
2018-08-09T03:47:40.000Z,100236
2018-08-09T03:49:40.000Z,100241
2018-08-09T03:50:40.000Z,100244
2018-08-09T03:52:24.000Z,100253
2018-08-09T03:53:40.000Z,100261
2018-08-09T03:55:40.000Z,100257
2018-08-09T03:56:40.000Z,100261
2018-08-09T03:58:40.000Z,100259
2018-08-09T04:00:40.000Z,100259
2018-08-09T04:02:40.000Z,100246
2018-08-09T04:03:40.000Z,100243
2018-08-09T04:05:40.000Z,100240
2018-08-09T04:07:40.000Z,100234
2018-08-09T04:08:40.000Z,100228
2018-08-09T04:09:40.000Z,100231
2018-08-09T04:10:40.000Z,100238
2018-08-09T04:12:40.000Z,100240
2018-08-09T04:14:39.000Z,100246
2018-08-09T04:15:39.000Z,100246
2018-08-09T04:17:24.000Z,100252
2018-08-09T04:18:39.000Z,100251
2018-08-09T04:20:39.000Z,100251
2018-08-09T04:22:39.000Z,100254
2018-08-09T04:23:39.000Z,100257
2018-08-09T04:25:39.000Z,100249
2018-08-09T04:26:39.000Z,100246
2018-08-09T04:28:39.000Z,100249
2018-08-09T04:30:39.000Z,100243
2018-08-09T04:32:39.000Z,100247
2018-08-09T04:33:39.000Z,100251
2018-08-09T04:34:39.000Z,100246
2018-08-09T04:36:39.000Z,100254
2018-08-09T04:37:39.000Z,100253
2018-08-09T04:39:39.000Z,100256
2018-08-09T04:40:39.000Z,100257
2018-08-09T04:41:39.000Z,100261
2018-08-09T04:43:39.000Z,100265
2018-08-09T04:44:39.000Z,100262
2018-08-09T04:45:39.000Z,100262
2018-08-09T04:46:39.000Z,100263
2018-08-09T04:47:39.000Z,100266
2018-08-09T04:49:39.000Z,100262
2018-08-09T04:51:39.000Z,100250
2018-08-09T04:53:39.000Z,100239
2018-08-09T04:54:39.000Z,100237
2018-08-09T04:56:24.000Z,100234
2018-08-09T04:57:39.000Z,100229
2018-08-09T04:59:39.000Z,100223
2018-08-09T05:01:39.000Z,100229
2018-08-09T05:02:39.000Z,100231
2018-08-09T05:04:39.000Z,100229
2018-08-09T05:05:39.000Z,100230
2018-08-09T05:07:39.000Z,100222
2018-08-09T05:09:39.000Z,100229
2018-08-09T05:11:39.000Z,100230
2018-08-09T05:13:24.000Z,100231
2018-08-09T05:14:39.000Z,100227
2018-08-09T05:16:39.000Z,100225
2018-08-09T05:18:39.000Z,100227
2018-08-09T05:20:39.000Z,100220
2018-08-09T05:22:39.000Z,100217
2018-08-09T05:23:39.000Z,100228
2018-08-09T05:25:39.000Z,100215
2018-08-09T05:27:39.000Z,100218
2018-08-09T05:29:39.000Z,100218
2018-08-09T05:30:39.000Z,100221
2018-08-09T05:32:39.000Z,100215
2018-08-09T05:33:39.000Z,100211
2018-08-09T05:35:39.000Z,100208
2018-08-09T05:36:39.000Z,100206
2018-08-09T05:38:39.000Z,100201
2018-08-09T05:40:39.000Z,100203
2018-08-09T05:42:39.000Z,100204
2018-08-09T05:44:39.000Z,100203
2018-08-09T05:45:39.000Z,100203
2018-08-09T05:47:39.000Z,100199
2018-08-09T05:48:39.000Z,100199
2018-08-09T05:50:39.000Z,100198
2018-08-09T05:52:39.000Z,100192
2018-08-09T05:54:39.000Z,100189
2018-08-09T05:55:39.000Z,100188
2018-08-09T05:57:39.000Z,100193
2018-08-09T05:58:39.000Z,100194
2018-08-09T06:00:39.000Z,100193
2018-08-09T06:02:39.000Z,100185
2018-08-09T06:04:39.000Z,100169
2018-08-09T06:06:39.000Z,100164
2018-08-09T06:08:39.000Z,100164
2018-08-09T06:10:24.000Z,100172
2018-08-09T06:11:39.000Z,100176
2018-08-09T06:13:39.000Z,100179
2018-08-09T06:15:39.000Z,100183
2018-08-09T06:17:39.000Z,100182
2018-08-09T06:19:39.000Z,100179
2018-08-09T06:20:40.000Z,100174
2018-08-09T06:22:40.000Z,100174
2018-08-09T06:24:40.000Z,100176
2018-08-09T06:26:40.000Z,100179
2018-08-09T06:27:40.000Z,100178
2018-08-09T06:29:40.000Z,100171
2018-08-09T06:30:40.000Z,100170
2018-08-09T06:31:40.000Z,100165
2018-08-09T06:33:40.000Z,100155
2018-08-09T06:35:40.000Z,100154
2018-08-09T06:37:40.000Z,100163
2018-08-09T06:38:40.000Z,100166
2018-08-09T06:40:40.000Z,100168
2018-08-09T06:42:25.000Z,100162
2018-08-09T06:43:40.000Z,100164
2018-08-09T06:45:40.000Z,100160
2018-08-09T06:46:40.000Z,100156
2018-08-09T06:47:40.000Z,100152
2018-08-09T06:48:40.000Z,100153
2018-08-09T06:50:40.000Z,100144
2018-08-09T06:51:40.000Z,100148
2018-08-09T06:53:40.000Z,100145
2018-08-09T06:54:40.000Z,100151
2018-08-09T06:55:40.000Z,100149
2018-08-09T06:56:40.000Z,100150
2018-08-09T06:58:40.000Z,100150
2018-08-09T06:59:40.000Z,100154
2018-08-09T07:00:40.000Z,100150
2018-08-09T07:01:40.000Z,100145
2018-08-09T07:03:40.000Z,100151
2018-08-09T07:05:40.000Z,100150
2018-08-09T07:07:40.000Z,100144
2018-08-09T07:09:40.000Z,100138
2018-08-09T07:11:40.000Z,100127
2018-08-09T07:12:40.000Z,100132
2018-08-09T07:13:40.000Z,100129
2018-08-09T07:15:40.000Z,100130
2018-08-09T07:17:40.000Z,100119
2018-08-09T07:19:40.000Z,100113
2018-08-09T07:20:40.000Z,100117
2018-08-09T07:22:40.000Z,100133
2018-08-09T07:23:40.000Z,100144
2018-08-09T07:25:09.000Z,100145
2018-08-09T07:26:39.000Z,100142
2018-08-09T07:28:39.000Z,100149
2018-08-09T07:30:39.000Z,100151
2018-08-09T07:32:39.000Z,100145
2018-08-09T07:33:39.000Z,100146
2018-08-09T07:35:39.000Z,100151
2018-08-09T07:37:24.000Z,100141
2018-08-09T07:38:39.000Z,100143
2018-08-09T07:40:39.000Z,100137
2018-08-09T07:41:39.000Z,100135
2018-08-09T07:42:39.000Z,100136
2018-08-09T07:44:39.000Z,100136
2018-08-09T07:45:39.000Z,100132
2018-08-09T07:46:39.000Z,100130
2018-08-09T07:48:39.000Z,100129
2018-08-09T07:50:24.000Z,100128
2018-08-09T07:51:39.000Z,100130
2018-08-09T07:53:39.000Z,100120
2018-08-09T07:55:24.000Z,100118
2018-08-09T07:56:39.000Z,100114
2018-08-09T07:58:39.000Z,100109
2018-08-09T08:00:24.000Z,100098
2018-08-09T08:01:39.000Z,100099
2018-08-09T08:03:39.000Z,100101
2018-08-09T08:04:39.000Z,100097
2018-08-09T08:06:39.000Z,100100
2018-08-09T08:07:39.000Z,100103
2018-08-09T08:09:39.000Z,100094
2018-08-09T08:11:39.000Z,100089
2018-08-09T08:12:39.000Z,100090
2018-08-09T08:14:39.000Z,100079
2018-08-09T08:16:39.000Z,100083
2018-08-09T08:18:39.000Z,100086
2018-08-09T08:19:39.000Z,100075
2018-08-09T08:21:24.000Z,100076
2018-08-09T08:22:39.000Z,100077
2018-08-09T08:24:39.000Z,100082
2018-08-09T08:26:09.000Z,100086
2018-08-09T08:27:40.000Z,100091
2018-08-09T08:29:25.000Z,100087
2018-08-09T08:30:40.000Z,100088
2018-08-09T08:32:40.000Z,100092
2018-08-09T08:34:40.000Z,100092
2018-08-09T08:36:40.000Z,100079
2018-08-09T08:37:40.000Z,100076
2018-08-09T08:39:40.000Z,100076
2018-08-09T08:40:40.000Z,100073
2018-08-09T08:42:40.000Z,100066
2018-08-09T08:43:40.000Z,100064
2018-08-09T08:45:40.000Z,100057
2018-08-09T08:47:25.000Z,100055
2018-08-09T08:48:40.000Z,100045
2018-08-09T08:50:40.000Z,100024
2018-08-09T08:51:40.000Z,100012
2018-08-09T08:52:40.000Z,100017
2018-08-09T08:54:40.000Z,100006
2018-08-09T08:55:40.000Z,100002
2018-08-09T08:57:25.000Z,99996
2018-08-09T08:58:40.000Z,99997
2018-08-09T09:00:40.000Z,100002
2018-08-09T09:02:25.000Z,100002
2018-08-09T09:03:40.000Z,99996
2018-08-09T09:05:40.000Z,100000
2018-08-09T09:07:40.000Z,100004
2018-08-09T09:09:40.000Z,100010
2018-08-09T09:10:40.000Z,100010
2018-08-09T09:12:40.000Z,99999
2018-08-09T09:14:40.000Z,100008
2018-08-09T09:15:40.000Z,100001
2018-08-09T09:17:40.000Z,100004
2018-08-09T09:18:40.000Z,100000
2018-08-09T09:20:40.000Z,100004
2018-08-09T09:21:40.000Z,100001
2018-08-09T09:23:40.000Z,100008
2018-08-09T09:25:40.000Z,100009
2018-08-09T09:27:40.000Z,99997
2018-08-09T09:29:40.000Z,99997
2018-08-09T09:30:40.000Z,99996
2018-08-09T09:32:40.000Z,99989
2018-08-09T09:34:40.000Z,99975
2018-08-09T09:35:40.000Z,99975
2018-08-09T09:37:40.000Z,99983
2018-08-09T09:38:40.000Z,99982
2018-08-09T09:39:40.000Z,99980
2018-08-09T09:41:24.000Z,99974
2018-08-09T09:42:40.000Z,99972
2018-08-09T09:44:40.000Z,99959
2018-08-09T09:45:40.000Z,99957
2018-08-09T09:47:40.000Z,99949
2018-08-09T09:49:24.000Z,99936
2018-08-09T09:50:40.000Z,99937
2018-08-09T09:52:40.000Z,99923
2018-08-09T09:54:40.000Z,99908
2018-08-09T09:56:40.000Z,99895
2018-08-09T09:57:40.000Z,99898
2018-08-09T09:59:24.000Z,99895
2018-08-09T10:00:40.000Z,99892
2018-08-09T10:01:40.000Z,99900
2018-08-09T10:03:40.000Z,99885
2018-08-09T10:04:40.000Z,99890
2018-08-09T10:05:40.000Z,99876
2018-08-09T10:07:24.000Z,99876
2018-08-09T10:08:40.000Z,99874
2018-08-09T10:09:40.000Z,99869
2018-08-09T10:11:40.000Z,99873
2018-08-09T10:13:40.000Z,99851
2018-08-09T10:14:40.000Z,99847
2018-08-09T10:16:40.000Z,99846
2018-08-09T10:17:40.000Z,99842
2018-08-09T10:19:40.000Z,99831
2018-08-09T10:21:24.000Z,99826
2018-08-09T10:22:40.000Z,99833
2018-08-09T10:24:40.000Z,99841
2018-08-09T10:25:40.000Z,99825
2018-08-09T10:26:40.000Z,99823
2018-08-09T10:27:40.000Z,99824
2018-08-09T10:29:40.000Z,99825
2018-08-09T10:30:40.000Z,99820
2018-08-09T10:31:40.000Z,99813
2018-08-09T10:33:40.000Z,99809
2018-08-09T10:35:39.000Z,99809
2018-08-09T10:37:39.000Z,99802
2018-08-09T10:39:39.000Z,99799
2018-08-09T10:41:09.000Z,99796
2018-08-09T10:42:39.000Z,99794
2018-08-09T10:43:39.000Z,99798
2018-08-09T10:45:39.000Z,99796
2018-08-09T10:47:39.000Z,99797
2018-08-09T10:48:39.000Z,99795
2018-08-09T10:50:39.000Z,99794
2018-08-09T10:52:39.000Z,99781
2018-08-09T10:54:39.000Z,99768
2018-08-09T10:56:39.000Z,99752
2018-08-09T10:58:24.000Z,99751
2018-08-09T10:59:39.000Z,99752
2018-08-09T11:01:24.000Z,99741
2018-08-09T11:02:39.000Z,99740
2018-08-09T11:03:39.000Z,99741
2018-08-09T11:04:39.000Z,99735
2018-08-09T11:06:39.000Z,99721
2018-08-09T11:07:39.000Z,99726
2018-08-09T11:09:39.000Z,99718
2018-08-09T11:10:39.000Z,99721
2018-08-09T11:12:39.000Z,99711
2018-08-09T11:14:39.000Z,99712
2018-08-09T11:16:24.000Z,99704
2018-08-09T11:17:39.000Z,99695
2018-08-09T11:19:39.000Z,99689
2018-08-09T11:21:39.000Z,99683
2018-08-09T11:23:39.000Z,99672
2018-08-09T11:24:39.000Z,99669
2018-08-09T11:26:39.000Z,99662
2018-08-09T11:27:39.000Z,99663
2018-08-09T11:29:39.000Z,99643
2018-08-09T11:31:39.000Z,99634
2018-08-09T11:32:39.000Z,99645
2018-08-09T11:34:24.000Z,99640
2018-08-09T11:35:39.000Z,99634
2018-08-09T11:37:39.000Z,99629
2018-08-09T11:39:40.000Z,99637
2018-08-09T11:40:40.000Z,99635
2018-08-09T11:42:40.000Z,99629
2018-08-09T11:44:40.000Z,99624
2018-08-09T11:46:40.000Z,99615
2018-08-09T11:48:40.000Z,99613
2018-08-09T11:50:24.000Z,99608
2018-08-09T11:51:40.000Z,99607
2018-08-09T11:52:40.000Z,99600
2018-08-09T11:54:40.000Z,99591
2018-08-09T11:56:40.000Z,99584
2018-08-09T11:57:40.000Z,99582
2018-08-09T11:58:40.000Z,99579
2018-08-09T12:00:40.000Z,99564
2018-08-09T12:02:40.000Z,99561
2018-08-09T12:04:40.000Z,99555
2018-08-09T12:05:40.000Z,99558
2018-08-09T12:07:40.000Z,99554
2018-08-09T12:09:40.000Z,99546
2018-08-09T12:10:40.000Z,99538
2018-08-09T12:11:40.000Z,99543
2018-08-09T12:13:40.000Z,99533
2018-08-09T12:15:40.000Z,99537
2018-08-09T12:17:40.000Z,99529
2018-08-09T12:18:40.000Z,99529
2018-08-09T12:20:40.000Z,99521
2018-08-09T12:22:40.000Z,99518
2018-08-09T12:24:24.000Z,99517
2018-08-09T12:25:40.000Z,99512
2018-08-09T12:26:40.000Z,99510
2018-08-09T12:28:40.000Z,99500
2018-08-09T12:30:40.000Z,99494
2018-08-09T12:31:40.000Z,99492
2018-08-09T12:33:40.000Z,99496
2018-08-09T12:34:40.000Z,99495
2018-08-09T12:36:40.000Z,99500
2018-08-09T12:38:40.000Z,99496
2018-08-09T12:39:40.000Z,99499
2018-08-09T12:41:40.000Z,99502
2018-08-09T12:43:39.000Z,99497
2018-08-09T12:45:24.000Z,99501
2018-08-09T12:46:39.000Z,99500
2018-08-09T12:47:39.000Z,99499
2018-08-09T12:49:39.000Z,99501
2018-08-09T12:51:39.000Z,99494
2018-08-09T12:53:39.000Z,99498
2018-08-09T12:54:39.000Z,99490
2018-08-09T12:56:39.000Z,99483
2018-08-09T12:57:39.000Z,99483
2018-08-09T12:59:39.000Z,99476
2018-08-09T13:01:39.000Z,99473
2018-08-09T13:03:39.000Z,99474
2018-08-09T13:05:24.000Z,99472
2018-08-09T13:06:39.000Z,99463
2018-08-09T13:07:39.000Z,99456
2018-08-09T13:09:39.000Z,99454
2018-08-09T13:11:39.000Z,99452
2018-08-09T13:13:39.000Z,99442
2018-08-09T13:15:39.000Z,99448
2018-08-09T13:16:39.000Z,99446
2018-08-09T13:18:39.000Z,99449
2018-08-09T13:19:39.000Z,99443
2018-08-09T13:21:39.000Z,99451
2018-08-09T13:23:39.000Z,99445
2018-08-09T13:25:39.000Z,99438
2018-08-09T13:27:39.000Z,99436
2018-08-09T13:29:39.000Z,99434
2018-08-09T13:30:39.000Z,99436
2018-08-09T13:32:39.000Z,99440
2018-08-09T13:34:39.000Z,99437
2018-08-09T13:36:39.000Z,99441
2018-08-09T13:38:24.000Z,99460
2018-08-09T13:39:39.000Z,99459
2018-08-09T13:40:39.000Z,99490
2018-08-09T13:42:39.000Z,99532
2018-08-09T13:44:39.000Z,99572
2018-08-09T13:46:40.000Z,99600
2018-08-09T13:48:25.000Z,99604
2018-08-09T13:49:40.000Z,99613
2018-08-09T13:50:40.000Z,99607
2018-08-09T13:52:40.000Z,99589
2018-08-09T13:54:10.000Z,99600
2018-08-09T13:55:40.000Z,99590
2018-08-09T13:57:40.000Z,99605
2018-08-09T13:59:40.000Z,99595
2018-08-09T14:01:10.000Z,99607
2018-08-09T14:02:40.000Z,99606
2018-08-09T14:03:40.000Z,99601
2018-08-09T14:05:40.000Z,99606
2018-08-09T14:07:40.000Z,99623
2018-08-09T14:09:25.000Z,99619
2018-08-09T14:10:40.000Z,99610
2018-08-09T14:11:40.000Z,99623
2018-08-09T14:12:40.000Z,99597
2018-08-09T14:14:40.000Z,99601
2018-08-09T14:15:40.000Z,99600
2018-08-09T14:17:40.000Z,99615
2018-08-09T14:19:40.000Z,99604
2018-08-09T14:21:40.000Z,99613
2018-08-09T14:23:40.000Z,99652
2018-08-09T14:25:40.000Z,99646
2018-08-09T14:27:40.000Z,99636
2018-08-09T14:29:25.000Z,99638
2018-08-09T14:30:40.000Z,99628
2018-08-09T14:31:40.000Z,99623
2018-08-09T14:33:40.000Z,99626
2018-08-09T14:34:40.000Z,99613
2018-08-09T14:36:40.000Z,99614
2018-08-09T14:38:25.000Z,99623
2018-08-09T14:39:40.000Z,99615
2018-08-09T14:41:40.000Z,99615
2018-08-09T14:43:40.000Z,99628
2018-08-09T14:44:40.000Z,99631
2018-08-09T14:46:40.000Z,99651
2018-08-09T14:48:40.000Z,99640
2018-08-09T14:49:40.000Z,99638
2018-08-09T14:51:40.000Z,99618
2018-08-09T14:53:40.000Z,99616
2018-08-09T14:55:40.000Z,99608
2018-08-09T14:56:40.000Z,99615
2018-08-09T14:57:40.000Z,99613
2018-08-09T14:59:40.000Z,99617
2018-08-09T15:01:40.000Z,99629
2018-08-09T15:03:40.000Z,99629
2018-08-09T15:04:40.000Z,99641
2018-08-09T15:06:24.000Z,99641
2018-08-09T15:07:40.000Z,99644
2018-08-09T15:09:40.000Z,99629
2018-08-09T15:10:40.000Z,99634
2018-08-09T15:12:40.000Z,99633
2018-08-09T15:14:40.000Z,99622
2018-08-09T15:15:40.000Z,99623
2018-08-09T15:16:40.000Z,99619
2018-08-09T15:17:40.000Z,99609
2018-08-09T15:19:40.000Z,99616
2018-08-09T15:23:26.000Z,99616
2018-08-09T15:24:26.000Z,99616
2018-08-09T15:26:10.000Z,99613
2018-08-09T15:27:26.000Z,99609
2018-08-09T15:29:10.000Z,99601
2018-08-09T15:30:26.000Z,99605
2018-08-09T15:31:26.000Z,99603
2018-08-09T15:33:26.000Z,99621
2018-08-09T15:34:26.000Z,99617
2018-08-09T15:36:26.000Z,99609
2018-08-09T15:38:26.000Z,99611
2018-08-09T15:40:26.000Z,99598
2018-08-09T15:41:26.000Z,99614
2018-08-09T15:42:26.000Z,99604
2018-08-09T15:44:10.000Z,99602
2018-08-09T15:45:26.000Z,99590
2018-08-09T15:46:26.000Z,99600
2018-08-09T15:48:26.000Z,99589
2018-08-09T15:50:26.000Z,99612
2018-08-09T15:52:10.000Z,99605
2018-08-09T15:53:26.000Z,99599
2018-08-09T15:55:26.000Z,99605
2018-08-09T15:56:26.000Z,99597
2018-08-09T15:58:26.000Z,99601
2018-08-09T16:00:26.000Z,99602
2018-08-09T16:01:26.000Z,99613
2018-08-09T16:03:26.000Z,99608
2018-08-09T16:05:26.000Z,99593
2018-08-09T16:07:26.000Z,99608
2018-08-09T16:08:26.000Z,99610
2018-08-09T16:09:26.000Z,99606
2018-08-09T16:11:26.000Z,99612
2018-08-09T16:13:26.000Z,99609
2018-08-09T16:15:26.000Z,99620
2018-08-09T16:17:26.000Z,99618
2018-08-09T16:19:11.000Z,99597
2018-08-09T16:20:26.000Z,99597
2018-08-09T16:21:26.000Z,99592
2018-08-09T16:23:26.000Z,99606
2018-08-09T16:25:26.000Z,99602
2018-08-09T16:26:26.000Z,99588
2018-08-09T16:28:26.000Z,99591
2018-08-09T16:29:26.000Z,99587
2018-08-09T16:31:26.000Z,99585
2018-08-09T16:33:26.000Z,99587
2018-08-09T16:35:11.000Z,99591
2018-08-09T16:36:26.000Z,99591
2018-08-09T16:37:26.000Z,99591
2018-08-09T16:39:26.000Z,99587
2018-08-09T16:41:11.000Z,99577
2018-08-09T16:42:26.000Z,99572
2018-08-09T16:43:55.000Z,99584
2018-08-09T16:45:26.000Z,99574
2018-08-09T16:46:26.000Z,99570
2018-08-09T16:48:26.000Z,99570
2018-08-09T16:49:26.000Z,99562
2018-08-09T16:51:26.000Z,99572
2018-08-09T16:53:26.000Z,99556
2018-08-09T16:55:26.000Z,99548
2018-08-09T16:57:26.000Z,99559
2018-08-09T16:58:26.000Z,99547
2018-08-09T17:00:26.000Z,99550
2018-08-09T17:01:26.000Z,99563
2018-08-09T17:03:11.000Z,99561
2018-08-09T17:04:26.000Z,99553
2018-08-09T17:06:26.000Z,99548
2018-08-09T17:07:26.000Z,99560
2018-08-09T17:08:26.000Z,99557
2018-08-09T17:10:26.000Z,99557
2018-08-09T17:11:26.000Z,99566
2018-08-09T17:13:26.000Z,99561
2018-08-09T17:14:26.000Z,99568
2018-08-09T17:16:26.000Z,99561
2018-08-09T17:18:26.000Z,99560
2018-08-09T17:20:26.000Z,99564
2018-08-09T17:21:26.000Z,99560
2018-08-09T17:22:26.000Z,99567
2018-08-09T17:23:55.000Z,99575
2018-08-09T17:25:26.000Z,99573
2018-08-09T17:26:26.000Z,99568
2018-08-09T17:28:26.000Z,99555
2018-08-09T17:30:11.000Z,99563
2018-08-09T17:31:26.000Z,99568
2018-08-09T17:33:26.000Z,99552
2018-08-09T17:35:26.000Z,99551
2018-08-09T17:36:26.000Z,99556
2018-08-09T17:37:26.000Z,99551
2018-08-09T17:38:26.000Z,99561
2018-08-09T17:40:11.000Z,99562
2018-08-09T17:41:26.000Z,99560
2018-08-09T17:42:26.000Z,99557
2018-08-09T17:44:26.000Z,99547
2018-08-09T17:46:26.000Z,99555
2018-08-09T17:47:26.000Z,99556
2018-08-09T17:49:26.000Z,99549
2018-08-09T17:51:26.000Z,99542
2018-08-09T17:52:26.000Z,99563
2018-08-09T17:54:11.000Z,99573
2018-08-09T17:55:26.000Z,99566
2018-08-09T17:57:26.000Z,99581
2018-08-09T17:59:26.000Z,99585
2018-08-09T18:00:26.000Z,99573
2018-08-09T18:02:26.000Z,99575
2018-08-09T18:04:26.000Z,99583
2018-08-09T18:06:26.000Z,99591
2018-08-09T18:08:26.000Z,99591
2018-08-09T18:10:26.000Z,99589
2018-08-09T18:12:26.000Z,99596
2018-08-09T18:13:26.000Z,99598
2018-08-09T18:14:26.000Z,99595
2018-08-09T18:15:26.000Z,99602
2018-08-09T18:17:26.000Z,99599
2018-08-09T18:19:26.000Z,99603
2018-08-09T18:21:11.000Z,99609
2018-08-09T18:22:26.000Z,99595
2018-08-09T18:24:26.000Z,99600
2018-08-09T18:25:26.000Z,99602
2018-08-09T18:27:26.000Z,99604
2018-08-09T18:29:26.000Z,99607
2018-08-09T18:31:26.000Z,99627
2018-08-09T18:32:26.000Z,99641
2018-08-09T18:33:26.000Z,99655
2018-08-09T18:35:11.000Z,99662
2018-08-09T18:36:26.000Z,99678
2018-08-09T18:37:26.000Z,99674
2018-08-09T18:39:26.000Z,99679
2018-08-09T18:40:26.000Z,99688
2018-08-09T18:42:26.000Z,99711
2018-08-09T18:43:26.000Z,99727
2018-08-09T18:44:26.000Z,99732
2018-08-09T18:46:26.000Z,99732
2018-08-09T18:48:26.000Z,99733
2018-08-09T18:50:26.000Z,99739
2018-08-09T18:52:26.000Z,99734
2018-08-09T18:53:26.000Z,99729
2018-08-09T18:55:26.000Z,99728
2018-08-09T18:57:26.000Z,99745
2018-08-09T18:58:26.000Z,99740
2018-08-09T18:59:26.000Z,99740
2018-08-09T19:01:26.000Z,99752
2018-08-09T19:03:26.000Z,99770
2018-08-09T19:05:26.000Z,99762
2018-08-09T19:07:26.000Z,99759
2018-08-09T19:09:26.000Z,99777
2018-08-09T19:10:55.000Z,99774
2018-08-09T19:12:26.000Z,99787
2018-08-09T19:13:26.000Z,99790
2018-08-09T19:15:26.000Z,99791
2018-08-09T19:17:26.000Z,99800
2018-08-09T19:18:26.000Z,99799
2018-08-09T19:20:10.000Z,99820
2018-08-09T19:21:26.000Z,99827
2018-08-09T19:23:26.000Z,99833
2018-08-09T19:25:10.000Z,99841
2018-08-09T19:26:26.000Z,99853
2018-08-09T19:27:26.000Z,99852
2018-08-09T19:29:26.000Z,99842
2018-08-09T19:30:26.000Z,99852
2018-08-09T19:32:26.000Z,99856
2018-08-09T19:33:26.000Z,99874
2018-08-09T19:35:26.000Z,99877
2018-08-09T19:37:26.000Z,99870
2018-08-09T19:39:26.000Z,99868
2018-08-09T19:41:26.000Z,99867
2018-08-09T19:43:26.000Z,99867
2018-08-09T19:44:26.000Z,99868
2018-08-09T19:46:26.000Z,99860
2018-08-09T19:47:26.000Z,99866
2018-08-09T19:48:55.000Z,99870
2018-08-09T19:50:26.000Z,99863
2018-08-09T19:51:26.000Z,99868
2018-08-09T19:53:26.000Z,99875
2018-08-09T19:55:26.000Z,99874
2018-08-09T19:56:26.000Z,99877
2018-08-09T19:58:26.000Z,99894
2018-08-09T20:00:26.000Z,99877
2018-08-09T20:01:26.000Z,99882
2018-08-09T20:03:26.000Z,99886
2018-08-09T20:05:10.000Z,99882
2018-08-09T20:06:26.000Z,99888
2018-08-09T20:08:26.000Z,99890
2018-08-09T20:10:26.000Z,99896
2018-08-09T20:12:11.000Z,99900
2018-08-09T20:13:26.000Z,99895
2018-08-09T20:15:26.000Z,99891
2018-08-09T20:16:26.000Z,99898
2018-08-09T20:18:26.000Z,99904
2018-08-09T20:20:26.000Z,99915
2018-08-09T20:22:26.000Z,99922
2018-08-09T20:24:26.000Z,99916
2018-08-09T20:25:26.000Z,99921
2018-08-09T20:27:26.000Z,99905